createdAt,value
2022-12-08T00:01:20.245Z,95632.75
2022-12-08T00:03:47.690Z,95644.31
2022-12-08T00:06:49.647Z,95640.38
2022-12-08T00:09:23.264Z,95638.59
2022-12-08T00:11:52.304Z,95638.25
2022-12-08T00:14:18.911Z,95643.31
2022-12-08T00:16:45.417Z,95634.97
2022-12-08T00:19:12.272Z,95629.41
2022-12-08T00:21:38.630Z,95623.41
2022-12-08T00:24:05.097Z,95620.31
2022-12-08T00:26:31.860Z,95626.84
2022-12-08T00:28:58.178Z,95616.84
2022-12-08T00:31:24.591Z,95618.34
2022-12-08T00:33:51.413Z,95625.69
2022-12-08T00:36:17.769Z,95612.34
2022-12-08T00:38:45.003Z,95612.97
2022-12-08T00:41:17.472Z,95606.13
2022-12-08T00:43:44.302Z,95609.88
2022-12-08T00:46:11.851Z,95605.00
2022-12-08T00:48:38.823Z,95605.50
2022-12-08T00:51:05.265Z,95600.44
2022-12-08T00:53:32.190Z,95599.44
2022-12-08T00:55:58.987Z,95600.75
2022-12-08T00:58:25.338Z,95596.53
2022-12-08T01:00:51.831Z,95596.19
2022-12-08T01:03:18.635Z,95599.94
2022-12-08T01:05:45.011Z,95600.13
2022-12-08T01:08:11.373Z,95592.44
2022-12-08T01:10:38.676Z,95596.19
2022-12-08T01:13:05.377Z,95593.91
2022-12-08T01:15:31.721Z,95594.72
2022-12-08T01:17:58.470Z,95595.88
2022-12-08T01:20:25.364Z,95596.03
2022-12-08T01:22:51.668Z,95598.47
2022-12-08T01:25:18.120Z,95593.56
2022-12-08T01:27:44.759Z,95590.31
2022-12-08T01:30:12.096Z,95601.09
2022-12-08T01:32:38.433Z,95599.44
2022-12-08T01:35:05.406Z,95609.25
2022-12-08T01:37:31.723Z,95611.19
2022-12-08T01:39:58.056Z,95607.75
2022-12-08T01:42:25.412Z,95611.50
2022-12-08T01:44:57.223Z,95602.53
2022-12-08T01:47:30.486Z,95606.59
2022-12-08T01:49:56.999Z,95608.31
2022-12-08T01:52:33.682Z,95609.41
2022-12-08T01:55:08.548Z,95610.03
2022-12-08T01:57:44.146Z,95600.50
2022-12-08T02:00:14.659Z,95599.59
2022-12-08T02:02:59.052Z,95599.75
2022-12-08T02:05:31.545Z,95596.16
2022-12-08T02:08:02.101Z,95585.03
2022-12-08T02:10:30.867Z,95593.63
2022-12-08T02:12:59.090Z,95584.47
2022-12-08T02:15:51.926Z,95580.41
2022-12-08T02:19:22.063Z,95578.19
2022-12-08T02:21:45.732Z,95577.94
2022-12-08T02:24:23.257Z,95567.22
2022-12-08T02:27:21.098Z,95565.31
2022-12-08T02:30:08.765Z,95566.88
2022-12-08T02:33:12.501Z,95556.59
2022-12-08T02:35:51.649Z,95547.16
2022-12-08T02:38:31.538Z,95551.69
2022-12-08T02:41:22.189Z,95543.81
2022-12-08T02:44:08.497Z,95553.69
2022-12-08T02:46:48.560Z,95541.97
2022-12-08T02:49:16.591Z,95538.00
2022-12-08T02:51:42.901Z,95541.97
2022-12-08T02:54:10.060Z,95547.19
2022-12-08T02:56:54.946Z,95543.91
2022-12-08T02:59:47.715Z,95532.53
2022-12-08T03:02:33.214Z,95534.91
2022-12-08T03:05:06.478Z,95532.84
2022-12-08T03:07:44.986Z,95527.41
2022-12-08T03:10:35.854Z,95529.66
2022-12-08T03:13:14.692Z,95520.44
2022-12-08T03:15:43.167Z,95522.00
2022-12-08T03:18:15.846Z,95516.06
2022-12-08T03:20:45.102Z,95515.63
2022-12-08T03:23:14.857Z,95508.84
2022-12-08T03:25:48.359Z,95514.34
2022-12-08T03:28:15.802Z,95504.31
2022-12-08T03:30:47.629Z,95508.03
2022-12-08T03:33:25.746Z,95507.44
2022-12-08T03:35:53.417Z,95502.53
2022-12-08T03:38:19.836Z,95506.13
2022-12-08T03:41:04.818Z,95502.25
2022-12-08T03:43:31.194Z,95503.66
2022-12-08T03:45:58.102Z,95500.38
2022-12-08T03:48:24.460Z,95500.09
2022-12-08T03:50:50.827Z,95518.75
2022-12-08T03:53:17.495Z,95508.63
2022-12-08T03:55:43.828Z,95507.09
2022-12-08T03:58:10.518Z,95514.00
2022-12-08T04:00:36.831Z,95508.97
2022-12-08T04:03:04.423Z,95513.56
2022-12-08T04:05:31.116Z,95510.84
2022-12-08T04:07:58.097Z,95502.38
2022-12-08T04:10:24.538Z,95506.97
2022-12-08T04:12:51.320Z,95502.22
2022-12-08T04:15:17.631Z,95501.03
2022-12-08T04:17:44.293Z,95508.06
2022-12-08T04:20:11.259Z,95505.25
2022-12-08T04:22:37.570Z,95505.19
2022-12-08T04:25:04.744Z,95500.06
2022-12-08T04:27:31.062Z,95503.75
2022-12-08T04:29:57.787Z,95501.91
2022-12-08T04:32:24.110Z,95499.47
2022-12-08T04:34:50.491Z,95501.97
2022-12-08T04:37:17.190Z,95493.22
2022-12-08T04:39:44.957Z,95482.59
2022-12-08T04:42:11.280Z,95488.91
2022-12-08T04:44:37.954Z,95484.03
2022-12-08T04:47:04.434Z,95486.69
2022-12-08T04:49:30.799Z,95492.03
2022-12-08T04:51:57.690Z,95482.31
2022-12-08T04:54:24.039Z,95486.44
2022-12-08T04:56:50.351Z,95484.69
2022-12-08T04:59:17.190Z,95475.00
2022-12-08T05:01:43.617Z,95479.13
2022-12-08T05:04:10.064Z,95486.53
2022-12-08T05:06:37.009Z,95478.06
2022-12-08T05:09:03.385Z,95487.59
2022-12-08T05:11:29.695Z,95484.31
2022-12-08T05:13:56.380Z,95486.25
2022-12-08T05:16:23.066Z,95484.09
2022-12-08T05:18:49.459Z,95476.06
2022-12-08T05:21:15.782Z,95480.44
2022-12-08T05:23:42.419Z,95476.75
2022-12-08T05:26:08.809Z,95477.56
2022-12-08T05:28:43.653Z,95474.25
2022-12-08T05:31:15.741Z,95479.22
2022-12-08T05:33:43.398Z,95462.97
2022-12-08T05:36:12.308Z,95457.78
2022-12-08T05:38:39.638Z,95459.28
2022-12-08T05:41:07.629Z,95460.97
2022-12-08T05:43:34.239Z,95456.06
2022-12-08T05:46:01.571Z,95457.13
2022-12-08T05:48:27.976Z,95458.09
2022-12-08T05:50:54.310Z,95459.75
2022-12-08T05:53:21.276Z,95461.56
2022-12-08T05:55:48.010Z,95461.59
2022-12-08T05:58:16.945Z,95466.53
2022-12-08T06:00:43.868Z,95460.63
2022-12-08T06:03:14.754Z,95467.75
2022-12-08T06:05:42.433Z,95468.53
2022-12-08T06:08:09.223Z,95458.84
2022-12-08T06:10:35.609Z,95457.69
2022-12-08T06:13:02.291Z,95465.91
2022-12-08T06:15:28.618Z,95468.69
2022-12-08T06:17:55.663Z,95458.00
2022-12-08T06:20:21.992Z,95464.84
2022-12-08T06:22:48.319Z,95460.47
2022-12-08T06:25:15.052Z,95452.59
2022-12-08T06:27:41.655Z,95452.59
2022-12-08T06:30:08.934Z,95452.59
2022-12-08T06:32:36.814Z,95452.94
2022-12-08T06:35:03.717Z,95455.38
2022-12-08T06:37:30.042Z,95457.63
2022-12-08T06:39:56.808Z,95459.81
2022-12-08T06:42:42.401Z,95458.72
2022-12-08T06:45:09.685Z,95471.50
2022-12-08T06:47:36.141Z,95458.66
2022-12-08T06:50:03.550Z,95463.81
2022-12-08T06:52:30.161Z,95468.03
2022-12-08T06:54:56.494Z,95472.56
2022-12-08T06:57:24.561Z,95477.34
2022-12-08T06:59:50.912Z,95473.13
2022-12-08T07:02:17.529Z,95467.97
2022-12-08T07:04:44.515Z,95466.19
2022-12-08T07:07:10.870Z,95467.25
2022-12-08T07:09:37.661Z,95468.47
2022-12-08T07:12:04.601Z,95465.72
2022-12-08T07:14:31.298Z,95468.75
2022-12-08T07:16:57.700Z,95470.94
2022-12-08T07:19:24.141Z,95472.19
2022-12-08T07:21:50.803Z,95474.75
2022-12-08T07:24:17.108Z,95474.03
2022-12-08T07:26:43.541Z,95478.41
2022-12-08T07:29:11.017Z,95477.16
2022-12-08T07:31:37.335Z,95478.66
2022-12-08T07:34:03.966Z,95478.50
2022-12-08T07:36:30.822Z,95473.72
2022-12-08T07:38:57.175Z,95479.41
2022-12-08T07:41:25.692Z,95477.88
2022-12-08T07:43:54.019Z,95478.47
2022-12-08T07:46:22.787Z,95476.25
2022-12-08T07:48:49.356Z,95481.69
2022-12-08T07:51:17.315Z,95487.00
2022-12-08T07:53:49.893Z,95483.81
2022-12-08T07:56:20.828Z,95477.00
2022-12-08T07:58:47.553Z,95482.28
2022-12-08T08:01:23.331Z,95469.22
2022-12-08T08:03:49.878Z,95465.19
2022-12-08T08:06:16.578Z,95472.84
2022-12-08T08:08:43.287Z,95473.81
2022-12-08T08:11:18.948Z,95471.56
2022-12-08T08:13:47.606Z,95472.75
2022-12-08T08:16:14.775Z,95469.00
2022-12-08T08:18:41.738Z,95468.97
2022-12-08T08:21:43.020Z,95465.34
2022-12-08T08:23:54.715Z,95475.69
2022-12-08T08:26:21.533Z,95476.47
2022-12-08T08:28:48.138Z,95471.78
2022-12-08T08:31:14.872Z,95473.28
2022-12-08T08:33:41.292Z,95466.97
2022-12-08T08:36:09.239Z,95471.31
2022-12-08T08:38:40.379Z,95464.31
2022-12-08T08:41:10.913Z,95464.38
2022-12-08T08:43:38.687Z,95471.84
2022-12-08T08:46:06.250Z,95469.97
2022-12-08T08:48:33.675Z,95486.75
2022-12-08T08:51:08.769Z,95478.72
2022-12-08T08:53:35.380Z,95481.94
2022-12-08T08:56:03.056Z,95484.47
2022-12-08T08:58:29.903Z,95485.06
2022-12-08T09:00:56.399Z,95491.56
2022-12-08T09:03:22.735Z,95480.53
2022-12-08T09:05:50.881Z,95484.69
2022-12-08T09:08:17.416Z,95481.09
2022-12-08T09:10:43.855Z,95480.25
2022-12-08T09:13:10.486Z,95476.25
2022-12-08T09:15:37.060Z,95471.44
2022-12-08T09:18:03.840Z,95475.72
2022-12-08T09:20:30.159Z,95478.91
2022-12-08T09:22:56.488Z,95469.78
2022-12-08T09:25:23.446Z,95474.69
2022-12-08T09:27:49.821Z,95470.59
2022-12-08T09:30:16.353Z,95467.50
2022-12-08T09:32:43.263Z,95464.19
2022-12-08T09:35:09.645Z,95465.25
2022-12-08T09:37:35.994Z,95467.50
2022-12-08T09:40:03.202Z,95463.28
2022-12-08T09:42:40.219Z,95460.16
2022-12-08T09:45:12.685Z,95454.63
2022-12-08T09:47:57.417Z,95452.34
2022-12-08T09:50:33.086Z,95446.63
2022-12-08T09:53:08.809Z,95448.19
2022-12-08T09:55:46.857Z,95438.63
2022-12-08T09:58:25.504Z,95439.56
2022-12-08T10:00:52.617Z,95440.81
2022-12-08T10:03:30.321Z,95433.38
2022-12-08T10:06:27.069Z,95434.03
2022-12-08T10:09:30.141Z,95418.97
2022-12-08T10:12:00.648Z,95414.03
2022-12-08T10:14:46.046Z,95415.53
2022-12-08T10:17:18.524Z,95410.50
2022-12-08T10:19:47.023Z,95407.84
2022-12-08T10:22:26.818Z,95401.06
2022-12-08T10:25:07.187Z,95401.97
2022-12-08T10:27:37.451Z,95396.53
2022-12-08T10:30:22.439Z,95389.81
2022-12-08T10:32:50.988Z,95392.00
2022-12-08T10:35:19.662Z,95398.25
2022-12-08T10:38:01.312Z,95395.38
2022-12-08T10:40:34.377Z,95383.69
2022-12-08T10:43:01.950Z,95382.41
2022-12-08T10:45:33.171Z,95387.94
2022-12-08T10:48:20.161Z,95375.03
2022-12-08T10:50:53.925Z,95375.19
2022-12-08T10:53:34.185Z,95379.81
2022-12-08T10:56:03.278Z,95378.44
2022-12-08T10:58:44.100Z,95375.47
2022-12-08T11:01:28.188Z,95376.28
2022-12-08T11:03:58.839Z,95365.19
2022-12-08T11:06:36.999Z,95369.16
2022-12-08T11:09:22.567Z,95366.50
2022-12-08T11:11:52.112Z,95350.91
2022-12-08T11:14:24.529Z,95355.44
2022-12-08T11:16:53.974Z,95349.53
2022-12-08T11:19:25.875Z,95347.38
2022-12-08T11:21:52.191Z,95336.28
2022-12-08T11:24:30.221Z,95333.72
2022-12-08T11:27:02.862Z,95326.75
2022-12-08T11:29:32.126Z,95320.53
2022-12-08T11:32:12.078Z,95321.28
2022-12-08T11:34:55.909Z,95312.47
2022-12-08T11:37:35.135Z,95310.75
2022-12-08T11:40:15.913Z,95305.59
2022-12-08T11:43:08.443Z,95307.34
2022-12-08T11:45:36.929Z,95299.03
2022-12-08T11:48:51.321Z,95297.78
2022-12-08T11:51:40.112Z,95296.03
2022-12-08T11:54:25.779Z,95288.50
2022-12-08T11:57:01.114Z,95290.50
2022-12-08T11:59:41.573Z,95288.84
2022-12-08T12:02:16.614Z,95283.44
2022-12-08T12:04:52.549Z,95279.56
2022-12-08T12:07:38.089Z,95280.41
2022-12-08T12:10:07.748Z,95280.50
2022-12-08T12:12:59.809Z,95281.50
2022-12-08T12:16:17.504Z,95283.28
2022-12-08T12:18:47.915Z,95284.31
2022-12-08T12:21:22.599Z,95277.88
2022-12-08T12:23:56.772Z,95287.66
2022-12-08T12:26:26.099Z,95285.72
2022-12-08T12:28:58.304Z,95281.91
2022-12-08T12:31:28.914Z,95282.00
2022-12-08T12:34:06.406Z,95285.69
2022-12-08T12:36:48.141Z,95282.94
2022-12-08T12:39:18.063Z,95268.88
2022-12-08T12:41:50.255Z,95268.50
2022-12-08T12:44:19.374Z,95263.81
2022-12-08T12:46:53.455Z,95265.59
2022-12-08T12:49:37.961Z,95262.22
2022-12-08T12:52:26.505Z,95256.72
2022-12-08T12:54:52.843Z,95258.81
2022-12-08T12:57:19.211Z,95262.16
2022-12-08T12:59:54.695Z,95260.09
2022-12-08T13:02:29.804Z,95263.44
2022-12-08T13:05:08.560Z,95267.72
2022-12-08T13:07:46.252Z,95260.81
2022-12-08T13:10:15.994Z,95269.25
2022-12-08T13:12:44.249Z,95264.81
2022-12-08T13:15:20.999Z,95272.94
2022-12-08T13:17:49.072Z,95257.44
2022-12-08T13:20:47.507Z,95257.53
2022-12-08T13:23:28.349Z,95264.75
2022-12-08T13:26:27.057Z,95256.94
2022-12-08T13:29:01.037Z,95257.97
2022-12-08T13:31:50.961Z,95257.97
2022-12-08T13:34:32.866Z,95255.41
2022-12-08T13:37:11.846Z,95255.19
2022-12-08T13:39:49.579Z,95256.41
2022-12-08T13:42:39.856Z,95251.69
2022-12-08T13:45:33.640Z,95252.97
2022-12-08T13:57:13.964Z,95253.78
2022-12-08T13:59:45.975Z,95245.25
2022-12-08T14:02:32.640Z,95253.47
2022-12-08T14:07:48.394Z,95244.72
2022-12-08T14:10:35.846Z,95255.44
2022-12-08T14:13:05.327Z,95253.59
2022-12-08T14:15:38.646Z,95243.13
2022-12-08T14:18:06.790Z,95248.63
2022-12-08T14:20:51.797Z,95254.41
2022-12-08T14:23:21.393Z,95245.59
2022-12-08T14:25:48.460Z,95250.09
2022-12-08T14:28:14.993Z,95243.63
2022-12-08T14:30:42.587Z,95243.94
2022-12-08T14:33:14.912Z,95241.44
2022-12-08T14:35:41.637Z,95251.13
2022-12-08T14:38:17.028Z,95241.03
2022-12-08T14:41:04.850Z,95245.09
2022-12-08T14:43:32.296Z,95245.09
2022-12-08T14:46:05.041Z,95243.03
2022-12-08T14:48:31.398Z,95242.63
2022-12-08T14:50:59.748Z,95243.22
2022-12-08T14:53:29.099Z,95240.53
2022-12-08T14:55:55.487Z,95244.28
2022-12-08T14:58:30.366Z,95241.44
2022-12-08T15:00:58.924Z,95246.97
2022-12-08T15:03:28.357Z,95245.09
2022-12-08T15:06:03.443Z,95239.47
2022-12-08T15:08:30.980Z,95235.25
2022-12-08T15:11:22.493Z,95248.91
2022-12-08T15:13:50.953Z,95245.00
2022-12-08T15:16:28.052Z,95247.81
2022-12-08T15:19:16.282Z,95252.59
2022-12-08T15:21:44.813Z,95253.44
2022-12-08T15:24:13.828Z,95243.69
2022-12-08T15:26:49.180Z,95254.38
2022-12-08T15:29:27.325Z,95249.81
2022-12-08T15:31:57.242Z,95253.06
2022-12-08T15:34:23.674Z,95245.19
2022-12-08T15:36:51.749Z,95244.38
2022-12-08T15:39:18.448Z,95249.81
2022-12-08T15:41:44.770Z,95250.88
2022-12-08T15:44:11.069Z,95244.59
2022-12-08T15:46:37.812Z,95249.25
2022-12-08T15:49:04.215Z,95248.91
2022-12-08T15:51:36.193Z,95250.47
2022-12-08T15:54:03.111Z,95241.38
2022-12-08T15:56:29.486Z,95244.84
2022-12-08T15:58:57.280Z,95243.16
2022-12-08T16:01:24.956Z,95246.38
2022-12-08T16:09:38.210Z,95235.63
2022-12-08T16:13:06.952Z,95233.38
2022-12-08T16:18:07.564Z,95238.31
2022-12-08T16:23:41.521Z,95229.13
2022-12-08T16:28:58.481Z,95221.09
2022-12-08T16:31:24.984Z,95225.75
2022-12-08T16:33:52.275Z,95218.97
2022-12-08T16:36:19.047Z,95212.41
2022-12-08T16:38:48.309Z,95211.69
2022-12-08T16:41:35.648Z,95215.53
2022-12-08T16:44:04.970Z,95211.06
2022-12-08T16:46:33.061Z,95201.78
2022-12-08T16:49:01.043Z,95212.22
2022-12-08T16:51:27.828Z,95210.34
2022-12-08T16:53:57.205Z,95212.00
2022-12-08T16:56:32.710Z,95206.44
2022-12-08T16:59:00.829Z,95206.44
2022-12-08T17:01:28.378Z,95205.03
2022-12-08T17:06:42.111Z,95203.81
2022-12-08T17:09:08.710Z,95197.47
2022-12-08T17:11:42.370Z,95205.13
2022-12-08T17:14:09.942Z,95203.97
2022-12-08T17:16:36.988Z,95199.09
2022-12-08T17:19:03.606Z,95198.81
2022-12-08T17:21:30.075Z,95190.84
2022-12-08T17:23:56.785Z,95203.38
2022-12-08T17:26:23.162Z,95198.16
2022-12-08T17:29:00.597Z,95195.50
2022-12-08T17:31:30.324Z,95201.16
2022-12-08T17:34:05.040Z,95197.91
2022-12-08T17:36:31.584Z,95203.25
2022-12-08T17:38:59.776Z,95199.88
2022-12-08T17:41:26.619Z,95208.50
2022-12-08T17:43:53.007Z,95197.56
2022-12-08T17:46:20.652Z,95198.19
2022-12-08T17:48:47.696Z,95201.81
2022-12-08T17:51:14.984Z,95205.19
2022-12-08T17:53:41.327Z,95207.53
2022-12-08T17:56:18.361Z,95204.63
2022-12-08T17:58:47.548Z,95200.25
2022-12-08T18:01:17.685Z,95211.63
2022-12-08T18:03:45.170Z,95204.13
2022-12-08T18:06:12.581Z,95207.06
2022-12-08T18:08:39.634Z,95214.56
2022-12-08T18:11:19.405Z,95210.50
2022-12-08T18:13:47.089Z,95222.38
2022-12-08T18:16:13.934Z,95208.84
2022-12-08T18:18:40.544Z,95215.38
2022-12-08T18:21:07.890Z,95219.78
2022-12-08T18:23:36.554Z,95221.09
2022-12-08T18:26:07.594Z,95225.16
2022-12-08T18:28:35.419Z,95224.81
2022-12-08T18:31:02.128Z,95215.19
2022-12-08T18:33:28.618Z,95220.22
2022-12-08T18:35:55.128Z,95220.28
2022-12-08T18:38:21.498Z,95215.47
2022-12-08T18:40:48.210Z,95215.16
2022-12-08T18:43:14.985Z,95209.97
2022-12-08T18:45:41.395Z,95207.03
2022-12-08T18:48:08.067Z,95205.72
2022-12-08T18:50:34.745Z,95196.63
2022-12-08T18:53:01.059Z,95196.47
2022-12-08T18:55:27.363Z,95206.72
2022-12-08T18:57:54.257Z,95204.09
2022-12-08T19:00:20.952Z,95202.97
2022-12-08T19:02:47.347Z,95208.84
2022-12-08T19:05:14.460Z,95202.81
2022-12-08T19:07:42.360Z,95206.19
2022-12-08T19:10:09.523Z,95206.53
2022-12-08T19:12:36.381Z,95197.56
2022-12-08T19:15:03.321Z,95193.00
2022-12-08T19:17:29.922Z,95183.22
2022-12-08T19:19:56.383Z,95188.94
2022-12-08T19:22:23.114Z,95197.41
2022-12-08T19:24:49.798Z,95185.81
2022-12-08T19:27:16.180Z,95187.44
2022-12-08T19:29:42.920Z,95188.44
2022-12-08T19:32:09.342Z,95184.03
2022-12-08T19:34:35.741Z,95187.28
2022-12-08T19:37:02.491Z,95189.75
2022-12-08T19:39:47.525Z,95191.75
2022-12-08T19:42:38.958Z,95191.75
2022-12-08T19:45:07.577Z,95187.66
2022-12-08T19:47:34.097Z,95179.22
2022-12-08T19:50:19.740Z,95189.31
2022-12-08T19:52:46.159Z,95186.84
2022-12-08T19:55:13.727Z,95178.38
2022-12-08T19:57:40.595Z,95178.03
2022-12-08T20:00:10.198Z,95167.47
2022-12-08T20:02:37.683Z,95164.75
2022-12-08T20:05:08.638Z,95167.00
2022-12-08T20:07:35.175Z,95162.13
2022-12-08T20:10:05.468Z,95161.66
2022-12-08T20:12:31.936Z,95162.47
2022-12-08T20:14:58.301Z,95171.88
2022-12-08T20:17:25.052Z,95163.44
2022-12-08T20:19:51.467Z,95167.97
2022-12-08T20:22:17.827Z,95156.44
2022-12-08T20:24:44.601Z,95166.16
2022-12-08T20:27:11.015Z,95160.16
2022-12-08T20:29:37.846Z,95158.03
2022-12-08T20:32:04.341Z,95159.78
2022-12-08T20:34:31.268Z,95150.97
2022-12-08T20:36:57.978Z,95150.63
2022-12-08T20:39:24.313Z,95148.50
2022-12-08T20:41:52.036Z,95145.72
2022-12-08T20:44:18.998Z,95152.22
2022-12-08T20:46:49.411Z,95152.16
2022-12-08T20:49:16.416Z,95148.25
2022-12-08T20:51:44.381Z,95147.91
2022-12-08T20:54:11.129Z,95153.09
2022-12-08T20:56:43.413Z,95150.97
2022-12-08T20:59:18.304Z,95151.63
2022-12-08T21:01:44.840Z,95162.63
2022-12-08T21:04:13.363Z,95156.59
2022-12-08T21:06:39.977Z,95167.91
2022-12-08T21:09:07.083Z,95167.81
2022-12-08T21:11:33.774Z,95162.91
2022-12-08T21:14:00.134Z,95172.81
2022-12-08T21:16:27.022Z,95183.47
2022-12-08T21:18:53.585Z,95180.72
2022-12-08T21:21:20.094Z,95174.31
2022-12-08T21:23:46.944Z,95188.03
2022-12-08T21:26:16.341Z,95179.50
2022-12-08T21:28:43.639Z,95177.47
2022-12-08T21:31:12.510Z,95165.38
2022-12-08T21:33:39.204Z,95176.25
2022-12-08T21:36:09.080Z,95173.41
2022-12-08T21:38:37.607Z,95171.47
2022-12-08T21:41:16.583Z,95167.03
2022-12-08T21:43:43.440Z,95167.22
2022-12-08T21:46:17.328Z,95163.94
2022-12-08T21:48:44.517Z,95175.59
2022-12-08T21:51:11.006Z,95180.59
2022-12-08T21:53:37.453Z,95172.81
2022-12-08T21:56:09.185Z,95174.88
2022-12-08T21:58:35.990Z,95174.84
2022-12-08T22:01:10.887Z,95174.50
2022-12-08T22:03:38.659Z,95170.88
2022-12-08T22:06:07.471Z,95164.13
2022-12-08T22:08:34.939Z,95168.84
2022-12-08T22:11:02.888Z,95173.97
2022-12-08T22:13:29.335Z,95167.09
2022-12-08T22:16:00.246Z,95168.19
2022-12-08T22:18:27.826Z,95173.19
2022-12-08T22:20:54.978Z,95171.06
2022-12-08T22:23:22.129Z,95169.28
2022-12-08T22:25:58.910Z,95164.69
2022-12-08T22:28:27.575Z,95168.78
2022-12-08T22:30:54.819Z,95166.47
2022-12-08T22:33:21.166Z,95152.75
2022-12-08T22:35:59.958Z,95151.38
2022-12-08T22:38:28.772Z,95147.59
2022-12-08T22:40:55.353Z,95160.88
2022-12-08T22:43:23.236Z,95152.06
2022-12-08T22:45:50.378Z,95149.78
2022-12-08T22:48:17.020Z,95146.75
2022-12-08T22:50:43.652Z,95142.06
2022-12-08T22:53:13.017Z,95140.47
2022-12-08T22:55:43.991Z,95141.47
2022-12-08T22:58:11.620Z,95130.56
2022-12-08T23:00:38.482Z,95136.06
2022-12-08T23:03:05.876Z,95128.22
2022-12-08T23:05:37.126Z,95128.50
2022-12-08T23:08:05.130Z,95134.16
2022-12-08T23:10:33.223Z,95129.31
2022-12-08T23:13:03.811Z,95129.06
2022-12-08T23:15:30.694Z,95136.84
2022-12-08T23:17:57.404Z,95133.91
2022-12-08T23:20:23.824Z,95126.28
2022-12-08T23:22:50.218Z,95118.94
2022-12-08T23:25:19.018Z,95123.78
2022-12-08T23:27:46.107Z,95118.09
2022-12-08T23:30:13.271Z,95112.75
2022-12-08T23:32:40.101Z,95114.50
2022-12-08T23:35:07.178Z,95106.97
2022-12-08T23:37:33.527Z,95096.41
2022-12-08T23:40:00.395Z,95103.75
2022-12-08T23:42:29.545Z,95103.03
2022-12-08T23:44:56.093Z,95095.84
2022-12-08T23:47:22.610Z,95092.81
2022-12-08T23:49:49.595Z,95084.97
2022-12-08T23:52:16.057Z,95078.97
2022-12-08T23:54:42.400Z,95079.88
2022-12-08T23:57:09.275Z,95078.44
2022-12-08T23:59:35.590Z,95073.38
